Time;durP1;ratioP1;P1;durP2;ratioP2;P2;SDS_P1;SDS_P2;PMS_P1;PMS_P2;Temp;Humidity;BMP_temperature;BMP_pressure;BME280_temperature;BME280_humidity;BME280_pressure;Samples;Min_cycle;Max_cycle;Signal;HPM_P1;HPM_P2
2022/05/30 00:00:31;;;;;;;0.30;0.30;;;7.60;99.90;;;;;;5054365;28;20472;-73
2022/05/30 00:02:57;;;;;;;1.10;0.60;;;7.40;99.90;;;;;;5054202;28;20047;-74
2022/05/30 00:05:23;;;;;;;0.20;0.20;;;7.30;99.90;;;;;;5055305;28;20029;-74
2022/05/30 00:07:49;;;;;;;0.20;0.20;;;7.30;99.90;;;;;;5055209;28;20501;-74
2022/05/30 00:10:16;;;;;;;0.40;0.40;;;7.40;99.90;;;;;;5062499;22;20611;-75
2022/05/30 00:12:43;;;;;;;3.72;1.75;;;7.20;99.90;;;;;;5015613;28;20069;-75
2022/05/30 00:15:12;;;;;;;1.00;0.88;;;6.90;99.90;;;;;;4998009;28;20025;-75
2022/05/30 00:17:38;;;;;;;0.20;0.20;;;6.80;99.90;;;;;;5014152;28;20062;-75
2022/05/30 00:20:05;;;;;;;0.20;0.20;;;6.90;99.90;;;;;;5014229;28;20393;-75
2022/05/30 00:22:31;;;;;;;0.20;0.20;;;7.00;99.90;;;;;;5015334;28;20029;-75
2022/05/30 00:24:57;;;;;;;0.30;0.30;;;7.30;99.90;;;;;;5015467;28;20037;-75
2022/05/30 00:27:22;;;;;;;0.30;0.30;;;7.30;99.90;;;;;;5014557;28;20044;-75
2022/05/30 00:29:48;;;;;;;0.20;0.20;;;7.10;99.90;;;;;;5016126;28;20470;-75
2022/05/30 00:32:14;;;;;;;0.20;0.20;;;7.10;99.90;;;;;;5016064;28;20496;-75
2022/05/30 00:34:40;;;;;;;0.28;0.28;;;7.00;99.90;;;;;;5015258;28;20041;-75
2022/05/30 00:37:06;;;;;;;0.47;0.47;;;6.90;99.90;;;;;;5015146;28;20030;-76
2022/05/30 00:39:32;;;;;;;1.25;0.57;;;6.80;99.90;;;;;;5013743;28;20057;-76
2022/05/30 00:42:16;;;;;;;0.30;0.30;;;6.90;99.90;;;;;;5015001;28;20037;-76
2022/05/30 00:44:42;;;;;;;0.20;0.20;;;6.80;99.90;;;;;;5015096;28;20067;-76
2022/05/30 00:47:08;;;;;;;0.20;0.20;;;6.90;99.90;;;;;;5014979;28;20523;-76
2022/05/30 00:49:36;;;;;;;0.40;0.40;;;6.90;99.90;;;;;;5014728;28;20033;-76
2022/05/30 00:52:05;;;;;;;0.30;0.30;;;7.00;99.90;;;;;;5014859;28;20034;-76
2022/05/30 00:54:54;;;;;;;0.17;0.17;;;7.30;99.90;;;;;;4996747;28;20022;-76
2022/05/30 00:57:22;;;;;;;0.98;0.98;;;7.60;99.90;;;;;;5014838;28;20049;-76
2022/05/30 00:59:56;;;;;;;0.20;0.20;;;7.70;99.90;;;;;;5014915;28;20025;-76
2022/05/30 01:02:24;;;;;;;0.30;0.30;;;7.80;99.90;;;;;;5014688;28;20040;-76
2022/05/30 01:07:37;;;;;;;0.20;0.20;;;7.70;99.90;;;;;;5014443;28;20085;-76
2022/05/30 01:10:06;;;;;;;0.20;0.20;;;7.90;99.90;;;;;;5014359;28;20104;-76
2022/05/30 01:12:41;;;;;;;0.20;0.20;;;8.00;99.90;;;;;;5014466;28;20029;-76
2022/05/30 01:15:13;;;;;;;0.20;0.20;;;8.00;99.90;;;;;;5014424;28;20478;-76
2022/05/30 01:17:49;;;;;;;0.10;0.10;;;8.10;99.90;;;;;;5014455;28;20018;-76
2022/05/30 01:20:30;;;;;;;0.20;0.20;;;8.20;99.90;;;;;;5014308;28;20029;-76
2022/05/30 01:23:05;;;;;;;0.20;0.20;;;8.40;99.90;;;;;;5014469;28;20058;-76
2022/05/30 01:26:00;;;;;;;0.20;0.20;;;8.40;99.90;;;;;;5013225;28;20022;-76
2022/05/30 01:28:50;;;;;;;0.20;0.20;;;8.40;99.90;;;;;;5003560;28;20117;-76
2022/05/30 01:31:17;;;;;;;0.20;0.20;;;8.10;99.90;;;;;;5014199;28;20072;-75
2022/05/30 01:33:44;;;;;;;0.20;0.20;;;7.90;99.90;;;;;;5013477;28;20481;-76
2022/05/30 01:36:10;;;;;;;0.20;0.20;;;7.80;99.90;;;;;;5015262;28;20172;-75
2022/05/30 01:38:36;;;;;;;0.25;0.25;;;7.80;99.90;;;;;;5013123;28;20124;-74
2022/05/30 01:41:02;;;;;;;0.30;0.30;;;7.80;99.90;;;;;;5014139;28;20113;-74
2022/05/30 01:43:28;;;;;;;0.20;0.20;;;7.70;99.90;;;;;;5013933;28;20026;-74
2022/05/30 01:45:54;;;;;;;0.20;0.20;;;7.60;99.90;;;;;;5014025;28;20517;-73
2022/05/30 01:48:20;;;;;;;0.28;0.28;;;7.50;99.90;;;;;;5013757;28;20014;-74
2022/05/30 01:50:47;;;;;;;0.30;0.30;;;7.50;99.90;;;;;;5013982;28;20022;-73
2022/05/30 01:53:13;;;;;;;0.20;0.20;;;7.70;99.90;;;;;;5013886;28;20101;-74
2022/05/30 01:55:39;;;;;;;0.30;0.30;;;7.70;99.90;;;;;;5013939;28;20370;-75
2022/05/30 01:58:05;;;;;;;0.20;0.20;;;7.50;99.90;;;;;;5013709;28;20021;-73
2022/05/30 02:00:32;;;;;;;0.82;0.82;;;7.50;99.90;;;;;;5012691;28;20018;-73
2022/05/30 02:02:58;;;;;;;0.30;0.30;;;7.30;99.90;;;;;;4996131;28;20054;-73
2022/05/30 02:05:24;;;;;;;0.20;0.20;;;7.30;99.90;;;;;;5011720;28;20080;-74
2022/05/30 02:07:49;;;;;;;0.40;0.40;;;7.40;99.90;;;;;;5013479;28;20022;-74
2022/05/30 02:10:15;;;;;;;0.22;0.22;;;7.50;99.90;;;;;;5013590;28;20030;-74
2022/05/30 02:12:41;;;;;;;0.20;0.20;;;7.40;99.90;;;;;;5013667;28;20030;-74
2022/05/30 02:15:07;;;;;;;0.20;0.20;;;7.60;99.90;;;;;;5012508;28;20033;-74
2022/05/30 02:17:34;;;;;;;0.20;0.20;;;7.30;99.90;;;;;;5013360;28;20057;-74
2022/05/30 02:20:01;;;;;;;0.20;0.20;;;7.30;99.90;;;;;;5012120;28;20064;-73
2022/05/30 02:22:29;;;;;;;0.30;0.30;;;7.40;99.90;;;;;;5013228;28;20104;-74
2022/05/30 02:24:59;;;;;;;0.20;0.20;;;7.60;99.90;;;;;;5012431;28;20053;-74
2022/05/30 02:27:25;;;;;;;0.20;0.20;;;7.70;99.90;;;;;;5013207;28;20481;-74
2022/05/30 02:29:54;;;;;;;0.30;0.30;;;7.70;99.90;;;;;;5011993;28;20469;-74
2022/05/30 02:32:20;;;;;;;0.20;0.20;;;7.80;99.90;;;;;;5013129;28;20099;-74
2022/05/30 02:37:31;;;;;;;0.20;0.20;;;7.80;99.90;;;;;;5011736;28;20604;-74
2022/05/30 02:39:57;;;;;;;0.28;0.28;;;7.70;99.90;;;;;;5028356;28;20026;-74
2022/05/30 02:42:23;;;;;;;0.20;0.20;;;7.70;99.90;;;;;;5013433;28;20385;-74
2022/05/30 02:44:49;;;;;;;0.20;0.20;;;7.50;99.90;;;;;;5013680;28;20022;-73
2022/05/30 02:47:17;;;;;;;0.20;0.20;;;7.70;99.90;;;;;;5012782;28;20032;-74
2022/05/30 02:49:43;;;;;;;0.20;0.20;;;7.70;99.90;;;;;;5012954;28;20014;-74
2022/05/30 02:52:09;;;;;;;0.20;0.20;;;7.80;99.90;;;;;;5011616;28;20040;-74
2022/05/30 02:54:35;;;;;;;0.20;0.20;;;7.80;99.90;;;;;;5012938;28;20401;-74
2022/05/30 02:57:01;;;;;;;0.15;0.15;;;7.60;99.90;;;;;;5011379;28;20034;-74
2022/05/30 02:59:28;;;;;;;0.20;0.20;;;7.60;99.90;;;;;;5012878;28;20109;-74
2022/05/30 03:01:55;;;;;;;0.20;0.20;;;7.40;99.90;;;;;;5011524;28;20049;-74
2022/05/30 03:04:21;;;;;;;0.60;0.60;;;7.40;99.90;;;;;;5011501;28;20440;-74
2022/05/30 03:06:47;;;;;;;0.20;0.20;;;7.30;99.90;;;;;;5012789;28;20026;-73
2022/05/30 03:09:14;;;;;;;0.20;0.20;;;7.40;99.90;;;;;;5011255;28;20029;-74
2022/05/30 03:11:40;;;;;;;0.20;0.20;;;7.50;99.90;;;;;;5012190;28;20030;-74
2022/05/30 03:14:06;;;;;;;0.20;0.20;;;7.60;99.90;;;;;;5013052;28;20022;-74
2022/05/30 03:16:32;;;;;;;0.10;0.10;;;7.60;99.90;;;;;;5012175;28;20030;-74
2022/05/30 03:18:58;;;;;;;0.20;0.20;;;7.60;99.90;;;;;;5011321;28;20034;-74
2022/05/30 03:21:24;;;;;;;0.22;0.22;;;7.70;99.90;;;;;;5012480;28;20025;-74
2022/05/30 03:23:50;;;;;;;0.20;0.20;;;7.70;99.90;;;;;;5012343;28;20044;-74
2022/05/30 03:26:16;;;;;;;0.20;0.20;;;7.80;99.90;;;;;;5012244;28;20018;-73
2022/05/30 03:28:42;;;;;;;0.20;0.20;;;7.90;99.90;;;;;;5012130;28;20401;-74
2022/05/30 03:31:08;;;;;;;0.20;0.20;;;7.90;99.90;;;;;;5012314;28;20363;-73
2022/05/30 03:33:35;;;;;;;0.20;0.20;;;7.90;99.90;;;;;;5012276;28;20040;-74
2022/05/30 03:36:00;;;;;;;0.20;0.20;;;7.90;99.90;;;;;;5011081;28;20030;-74
2022/05/30 03:38:26;;;;;;;0.20;0.20;;;7.80;99.90;;;;;;5012055;28;20036;-74
2022/05/30 03:40:52;;;;;;;0.10;0.10;;;7.70;99.90;;;;;;4994686;28;20030;-74
2022/05/30 03:43:18;;;;;;;0.20;0.20;;;7.80;99.90;;;;;;5011256;28;20064;-74
2022/05/30 03:45:45;;;;;;;0.10;0.10;;;7.90;99.90;;;;;;5011256;28;20025;-74
2022/05/30 03:48:12;;;;;;;0.17;0.17;;;7.90;99.90;;;;;;5010690;28;20026;-74
2022/05/30 03:50:42;;;;;;;0.20;0.20;;;8.10;99.90;;;;;;5012058;28;20025;-74
2022/05/30 03:53:08;;;;;;;0.30;0.30;;;8.10;99.90;;;;;;5012186;28;20034;-74
2022/05/30 03:55:39;;;;;;;0.20;0.20;;;7.90;99.90;;;;;;5012183;28;20388;-74
2022/05/30 03:58:06;;;;;;;0.20;0.20;;;7.90;99.90;;;;;;5011783;28;20029;-74
2022/05/30 04:00:32;;;;;;;0.20;0.20;;;8.00;99.90;;;;;;5011932;28;20543;-74
2022/05/30 04:03:00;;;;;;;0.22;0.22;;;7.90;99.90;;;;;;5011916;28;20030;-74
2022/05/30 04:05:26;;;;;;;0.10;0.10;;;8.00;99.90;;;;;;5012478;28;20018;-74
2022/05/30 04:07:52;;;;;;;0.20;0.20;;;8.10;99.90;;;;;;5010461;28;20026;-73
2022/05/30 04:10:18;;;;;;;0.20;0.20;;;8.00;99.90;;;;;;5010528;28;20156;-74
2022/05/30 04:12:44;;;;;;;0.20;0.20;;;8.00;99.90;;;;;;5011728;28;20018;-74
2022/05/30 04:15:21;;;;;;;0.20;0.20;;;8.00;99.90;;;;;;5012213;28;20029;-73
2022/05/30 04:17:47;;;;;;;0.30;0.30;;;8.10;99.90;;;;;;5010588;28;20032;-74
2022/05/30 04:20:14;;;;;;;0.30;0.30;;;8.00;99.90;;;;;;5011879;28;20385;-73
2022/05/30 04:22:40;;;;;;;0.20;0.20;;;7.90;99.90;;;;;;5011723;28;20026;-73
2022/05/30 04:25:06;;;;;;;0.20;0.20;;;7.90;99.90;;;;;;5010826;28;20026;-74
2022/05/30 04:27:32;;;;;;;0.10;0.10;;;8.00;99.90;;;;;;5011203;28;20022;-74
2022/05/30 04:29:58;;;;;;;0.20;0.20;;;8.20;99.90;;;;;;5013885;28;20029;-74
2022/05/30 04:32:24;;;;;;;0.20;0.20;;;8.40;99.90;;;;;;5014408;28;20034;-74
2022/05/30 04:34:51;;;;;;;0.22;0.22;;;8.60;99.90;;;;;;5015219;28;20046;-73
2022/05/30 04:37:16;;;;;;;0.20;0.20;;;8.50;99.90;;;;;;5014971;28;20302;-73
2022/05/30 04:39:42;;;;;;;0.17;0.17;;;8.60;99.90;;;;;;5014054;28;20038;-74
2022/05/30 04:42:08;;;;;;;0.20;0.20;;;8.80;99.90;;;;;;5014054;28;20064;-73
2022/05/30 04:44:35;;;;;;;0.20;0.20;;;9.00;99.90;;;;;;5014851;28;20549;-74
2022/05/30 04:47:01;;;;;;;0.45;0.45;;;8.90;99.90;;;;;;5013791;28;20022;-75
2022/05/30 04:49:28;;;;;;;0.20;0.20;;;8.80;99.90;;;;;;5014793;28;20026;-74
2022/05/30 04:51:54;;;;;;;0.20;0.20;;;8.80;99.90;;;;;;5014713;28;20029;-74
2022/05/30 04:54:20;;;;;;;0.20;0.20;;;8.80;99.90;;;;;;5013525;28;20033;-74
2022/05/30 04:56:46;;;;;;;0.20;0.20;;;8.90;99.90;;;;;;5015021;28;20018;-75
2022/05/30 04:59:12;;;;;;;0.60;0.60;;;9.10;99.90;;;;;;5015080;28;20501;-74
2022/05/30 05:01:39;;;;;;;0.35;0.35;;;9.00;99.90;;;;;;5014800;28;20026;-74
2022/05/30 05:04:07;;;;;;;0.10;0.10;;;8.90;99.90;;;;;;5015032;28;20026;-74
2022/05/30 05:06:33;;;;;;;0.20;0.20;;;8.70;99.90;;;;;;5014809;28;20093;-74
2022/05/30 05:09:05;;;;;;;0.20;0.20;;;8.90;99.90;;;;;;5014930;28;20121;-74
2022/05/30 05:11:34;;;;;;;0.30;0.30;;;9.10;99.90;;;;;;5013152;28;20084;-74
2022/05/30 05:13:59;;;;;;;0.20;0.20;;;9.10;99.90;;;;;;5014478;28;20486;-74
2022/05/30 05:16:28;;;;;;;0.10;0.10;;;9.30;99.90;;;;;;5015242;28;20032;-74
2022/05/30 05:18:55;;;;;;;0.20;0.20;;;9.50;99.90;;;;;;5015051;28;20036;-75
2022/05/30 05:21:26;;;;;;;0.30;0.30;;;9.60;99.90;;;;;;5013287;28;20121;-74
2022/05/30 05:23:52;;;;;;;0.20;0.20;;;9.60;99.90;;;;;;5012868;28;20034;-74
2022/05/30 05:26:19;;;;;;;0.20;0.20;;;9.60;99.90;;;;;;5013085;28;20049;-74
2022/05/30 05:28:46;;;;;;;0.20;0.20;;;9.40;99.90;;;;;;4994118;28;20162;-74
2022/05/30 05:31:19;;;;;;;0.20;0.20;;;9.50;99.90;;;;;;5021263;28;20114;-74
2022/05/30 05:33:44;;;;;;;0.47;0.47;;;9.70;99.90;;;;;;5027368;28;20036;-74
2022/05/30 05:36:10;;;;;;;0.20;0.20;;;9.70;99.90;;;;;;5032781;28;20109;-74
2022/05/30 05:38:36;;;;;;;0.85;0.85;;;9.50;99.90;;;;;;5014929;28;20034;-74
2022/05/30 05:41:07;;;;;;;0.20;0.20;;;9.50;99.90;;;;;;5013448;28;20037;-74
2022/05/30 05:43:33;;;;;;;0.20;0.20;;;9.70;99.90;;;;;;4994835;28;20434;-74
2022/05/30 05:45:58;;;;;;;0.20;0.20;;;9.70;99.90;;;;;;5012188;28;20022;-74
2022/05/30 05:48:24;;;;;;;0.50;0.50;;;9.40;99.90;;;;;;5013992;28;20018;-74
2022/05/30 05:50:50;;;;;;;0.20;0.20;;;9.30;99.90;;;;;;5014214;28;20363;-74
2022/05/30 05:53:15;;;;;;;0.20;0.20;;;9.20;99.90;;;;;;5013032;28;20052;-75
2022/05/30 05:55:41;;;;;;;0.40;0.40;;;9.40;99.90;;;;;;4993223;28;20456;-75
2022/05/30 05:58:07;;;;;;;3.00;0.43;;;9.50;99.90;;;;;;4992981;28;20026;-73
2022/05/30 06:00:33;;;;;;;0.20;0.20;;;9.70;99.90;;;;;;5017257;28;20052;-74
2022/05/30 06:02:59;;;;;;;0.20;0.20;;;9.80;99.90;;;;;;5017281;28;20044;-74
2022/05/30 06:05:26;;;;;;;0.20;0.20;;;9.80;99.90;;;;;;5012713;28;20018;-73
2022/05/30 06:07:52;;;;;;;0.30;0.30;;;9.90;99.90;;;;;;5022371;28;20610;-73
2022/05/30 06:10:18;;;;;;;0.63;0.63;;;10.10;99.90;;;;;;5031945;28;20038;-74
2022/05/30 06:12:46;;;;;;;0.13;0.13;;;10.10;99.90;;;;;;5051774;22;20067;-77
2022/05/30 06:15:14;;;;;;;0.65;0.65;;;10.10;99.90;;;;;;5040033;28;20017;-77
2022/05/30 06:17:41;;;;;;;0.22;0.22;;;10.10;99.90;;;;;;5018766;28;20033;-78
2022/05/30 06:20:08;;;;;;;0.10;0.10;;;10.20;99.90;;;;;;5029911;28;20033;-77
2022/05/30 06:22:34;;;;;;;0.52;0.50;;;10.40;99.90;;;;;;5023463;28;20041;-77
2022/05/30 06:25:00;;;;;;;0.40;0.40;;;10.40;99.90;;;;;;5039673;28;20017;-77
2022/05/30 06:27:25;;;;;;;0.20;0.20;;;10.20;99.90;;;;;;5021772;28;20048;-77
2022/05/30 06:29:51;;;;;;;0.45;0.45;;;10.40;99.90;;;;;;5039269;28;20075;-78
2022/05/30 06:32:17;;;;;;;0.45;0.45;;;10.80;99.90;;;;;;5039904;28;20033;-77
2022/05/30 06:34:43;;;;;;;0.28;0.28;;;10.80;99.90;;;;;;5039553;28;20033;-77
2022/05/30 06:37:10;;;;;;;0.50;0.50;;;10.80;99.90;;;;;;5036706;28;20025;-77
2022/05/30 06:39:37;;;;;;;0.30;0.30;;;10.80;99.90;;;;;;5039985;28;20044;-78
2022/05/30 06:42:10;;;;;;;0.20;0.20;;;10.90;99.90;;;;;;5040286;28;20029;-78
2022/05/30 06:44:37;;;;;;;0.38;0.38;;;11.10;99.90;;;;;;5022715;28;20017;-77
2022/05/30 06:47:04;;;;;;;0.40;0.40;;;11.20;99.90;;;;;;5039167;28;20023;-77
2022/05/30 06:49:30;;;;;;;0.35;0.35;;;11.10;99.90;;;;;;5039383;28;20087;-77
2022/05/30 06:51:56;;;;;;;0.68;0.68;;;11.20;99.90;;;;;;5039382;28;20485;-77
2022/05/30 06:54:22;;;;;;;0.20;0.20;;;11.30;99.90;;;;;;5040069;28;20108;-77
2022/05/30 06:59:36;;;;;;;0.93;0.93;;;11.40;99.90;;;;;;5019861;28;20417;-78
2022/05/30 07:02:04;;;;;;;2.53;0.60;;;11.60;99.90;;;;;;5037828;28;20086;-77
2022/05/30 07:04:32;;;;;;;0.30;0.30;;;11.80;99.90;;;;;;5037771;28;20021;-77
2022/05/30 07:07:00;;;;;;;0.20;0.20;;;11.80;99.90;;;;;;5042158;28;20024;-77
2022/05/30 07:09:26;;;;;;;1.13;0.38;;;11.90;99.90;;;;;;5045227;28;20032;-77
2022/05/30 07:11:52;;;;;;;0.28;0.28;;;12.10;99.90;;;;;;5036265;28;20112;-77
2022/05/30 07:14:18;;;;;;;0.70;0.70;;;12.20;99.90;;;;;;5038337;28;20033;-77
2022/05/30 07:16:44;;;;;;;0.60;0.60;;;11.90;99.90;;;;;;5037825;28;20025;-77
2022/05/30 07:19:09;;;;;;;3.35;1.50;;;11.80;99.90;;;;;;5037651;28;20029;-77
2022/05/30 07:21:38;;;;;;;0.20;0.20;;;11.50;99.90;;;;;;5036933;28;20025;-77
2022/05/30 07:24:04;;;;;;;0.28;0.28;;;11.50;99.90;;;;;;5038672;28;20332;-77
2022/05/30 07:26:30;;;;;;;0.47;0.47;;;11.80;99.90;;;;;;5037336;28;20104;-77
2022/05/30 07:28:55;;;;;;;0.30;0.30;;;12.00;99.90;;;;;;5021033;28;20048;-77
2022/05/30 07:31:25;;;;;;;0.32;0.32;;;12.40;99.90;;;;;;5050218;28;20052;-77
2022/05/30 07:33:52;;;;;;;0.50;0.50;;;12.40;99.90;;;;;;5029479;28;20168;-78
2022/05/30 07:36:25;;;;;;;1.25;1.15;;;12.50;99.90;;;;;;5030029;28;20025;-77
2022/05/30 07:38:52;;;;;;;0.45;0.45;;;12.60;99.90;;;;;;5025164;28;20397;-77
2022/05/30 07:41:19;;;;;;;0.30;0.30;;;12.50;99.90;;;;;;5024993;28;20104;-77
2022/05/30 07:43:45;;;;;;;0.20;0.20;;;12.80;99.90;;;;;;5026006;28;20117;-77
2022/05/30 07:46:14;;;;;;;0.30;0.30;;;12.90;99.90;;;;;;5026703;28;20022;-77
2022/05/30 07:48:40;;;;;;;0.10;0.10;;;12.90;99.90;;;;;;5026047;28;20034;-77
2022/05/30 07:51:07;;;;;;;0.38;0.38;;;13.00;99.90;;;;;;5027224;28;20034;-77
2022/05/30 07:53:35;;;;;;;0.45;0.45;;;13.10;99.90;;;;;;5026558;28;20077;-78
2022/05/30 07:56:05;;;;;;;0.20;0.20;;;13.20;99.90;;;;;;5024428;28;20382;-77
2022/05/30 07:58:30;;;;;;;0.32;0.32;;;13.00;99.90;;;;;;5027378;28;20025;-77
2022/05/30 08:00:56;;;;;;;0.82;0.68;;;12.70;99.90;;;;;;5005382;28;20079;-77
2022/05/30 08:03:24;;;;;;;2.30;0.40;;;12.50;99.90;;;;;;5019270;28;20115;-77
2022/05/30 08:05:49;;;;;;;0.40;0.40;;;12.60;99.90;;;;;;5025700;28;20026;-77
2022/05/30 08:08:16;;;;;;;0.32;0.32;;;12.60;99.90;;;;;;5028283;28;20315;-77
2022/05/30 08:10:43;;;;;;;1.15;0.60;;;12.50;99.90;;;;;;5029469;28;20027;-77
2022/05/30 08:13:08;;;;;;;0.30;0.30;;;12.30;99.90;;;;;;5024854;28;20045;-77
2022/05/30 08:15:35;;;;;;;0.43;0.43;;;12.30;99.90;;;;;;5030131;28;20041;-78
2022/05/30 08:18:01;;;;;;;2.15;1.08;;;12.30;99.90;;;;;;5011004;28;20045;-78
2022/05/30 08:20:30;;;;;;;0.55;0.40;;;12.20;99.90;;;;;;5027413;28;20443;-78
2022/05/30 08:22:56;;;;;;;0.28;0.28;;;12.20;99.90;;;;;;5028911;28;20032;-78
2022/05/30 08:25:22;;;;;;;0.38;0.25;;;12.00;99.90;;;;;;5028483;28;20041;-78
2022/05/30 08:27:48;;;;;;;1.30;1.00;;;12.00;99.90;;;;;;5029913;28;20551;-78
2022/05/30 08:30:18;;;;;;;0.93;0.88;;;11.90;99.90;;;;;;5029010;28;20045;-77
2022/05/30 08:32:46;;;;;;;0.10;0.10;;;12.00;99.90;;;;;;5029961;28;20097;-78
2022/05/30 08:35:14;;;;;;;0.75;0.75;;;12.20;99.90;;;;;;5028528;28;20053;-78
2022/05/30 08:37:41;;;;;;;0.30;0.30;;;12.60;99.90;;;;;;5028597;28;20029;-78
2022/05/30 08:42:55;;;;;;;0.47;0.47;;;13.40;99.90;;;;;;5024585;28;20040;-77
2022/05/30 08:45:23;;;;;;;0.68;0.68;;;13.80;99.90;;;;;;5008876;28;20926;-77
2022/05/30 08:47:55;;;;;;;0.20;0.20;;;14.20;99.90;;;;;;5030409;28;20029;-78
2022/05/30 08:50:52;;;;;;;0.50;0.50;;;14.50;99.90;;;;;;5030770;28;20056;-77
2022/05/30 08:53:27;;;;;;;1.33;0.82;;;14.60;99.90;;;;;;5027027;28;20028;-77
2022/05/30 08:56:22;;;;;;;27.95;5.95;;;14.70;99.90;;;;;;5028209;28;20033;-78
2022/05/30 08:59:11;;;;;;;1.58;1.00;;;15.10;99.90;;;;;;5022444;28;20052;-78
2022/05/30 09:01:45;;;;;;;0.93;0.40;;;15.20;99.90;;;;;;5030921;28;20540;-78
2022/05/30 09:04:28;;;;;;;0.22;0.22;;;15.50;99.90;;;;;;5026728;28;20026;-79
2022/05/30 09:07:13;;;;;;;0.20;0.20;;;15.70;99.90;;;;;;5008951;28;20034;-77
2022/05/30 09:09:51;;;;;;;0.40;0.40;;;16.00;99.90;;;;;;5022889;28;20852;-76
2022/05/30 09:12:29;;;;;;;0.30;0.30;;;15.60;99.90;;;;;;5031276;28;20037;-77
2022/05/30 09:15:04;;;;;;;0.73;0.73;;;15.10;99.90;;;;;;5029714;28;20091;-77
2022/05/30 09:17:37;;;;;;;0.20;0.20;;;14.70;99.90;;;;;;5029989;28;20171;-77
2022/05/30 09:20:10;;;;;;;0.10;0.10;;;14.60;99.90;;;;;;5030899;28;20044;-78
2022/05/30 09:22:38;;;;;;;0.20;0.20;;;14.80;99.90;;;;;;5028186;28;20036;-77
2022/05/30 09:27:50;;;;;;;0.25;0.25;;;15.40;99.90;;;;;;5022052;28;20024;-77
2022/05/30 09:30:21;;;;;;;0.50;0.50;;;15.90;99.90;;;;;;5024794;28;20029;-76
2022/05/30 09:33:24;;;;;;;0.38;0.38;;;15.80;98.50;;;;;;5021506;28;20045;-76
2022/05/30 09:36:08;;;;;;;0.20;0.20;;;16.10;98.20;;;;;;5007389;28;20120;-76
2022/05/30 09:38:40;;;;;;;0.17;0.17;;;15.60;98.70;;;;;;5023826;28;20125;-77
2022/05/30 09:41:16;;;;;;;1.00;0.73;;;16.50;97.80;;;;;;5029546;28;20030;-77
2022/05/30 09:43:47;;;;;;;0.20;0.20;;;16.90;94.60;;;;;;5021895;28;20064;-76
2022/05/30 09:46:25;;;;;;;1.67;1.58;;;17.00;94.90;;;;;;5022686;28;20144;-77
2022/05/30 09:49:00;;;;;;;0.10;0.10;;;16.50;93.20;;;;;;5025040;28;20029;-76
2022/05/30 09:51:37;;;;;;;0.15;0.15;;;17.20;90.30;;;;;;5005242;28;20045;-77
2022/05/30 09:54:04;;;;;;;0.30;0.30;;;17.50;91.40;;;;;;5020503;28;20037;-77
2022/05/30 09:56:36;;;;;;;0.28;0.28;;;17.80;90.30;;;;;;5020745;28;20025;-77
2022/05/30 09:59:18;;;;;;;0.30;0.30;;;18.00;86.60;;;;;;5025466;28;20056;-77
2022/05/30 10:01:49;;;;;;;0.75;0.75;;;18.10;84.60;;;;;;5023358;28;20021;-76
2022/05/30 10:04:31;;;;;;;0.20;0.20;;;17.90;85.50;;;;;;5023050;28;20030;-78
2022/05/30 10:07:13;;;;;;;0.10;0.10;;;18.20;86.20;;;;;;5024489;28;20034;-78
2022/05/30 10:09:49;;;;;;;0.13;0.13;;;18.50;84.80;;;;;;5023335;28;20116;-78
2022/05/30 10:12:29;;;;;;;0.40;0.40;;;18.20;82.50;;;;;;5023911;28;20034;-78
2022/05/30 10:14:55;;;;;;;0.43;0.43;;;18.10;80.70;;;;;;5023330;28;20029;-78
2022/05/30 10:17:30;;;;;;;0.10;0.10;;;17.50;84.60;;;;;;5022503;28;20040;-78
2022/05/30 10:19:56;;;;;;;0.10;0.10;;;17.80;81.70;;;;;;5024245;28;20033;-78
2022/05/30 10:28:29;;;;;;;0.20;0.20;;;18.10;73.50;;;;;;5022553;28;20117;-78
2022/05/30 10:31:14;;;;;;;0.40;0.40;;;17.70;76.20;;;;;;5022232;28;20327;-78
2022/05/30 10:33:39;;;;;;;0.10;0.10;;;17.10;79.70;;;;;;5021205;28;20079;-78
2022/05/30 10:36:11;;;;;;;0.30;0.30;;;17.80;80.00;;;;;;5022038;28;20025;-78
2022/05/30 10:39:16;;;;;;;0.30;0.30;;;18.30;72.20;;;;;;5022822;28;20030;-78
2022/05/30 10:41:50;;;;;;;0.40;0.40;;;18.80;69.80;;;;;;5023522;28;20033;-78
2022/05/30 10:44:28;;;;;;;0.43;0.43;;;18.90;69.40;;;;;;5004380;28;20033;-78
2022/05/30 10:47:07;;;;;;;0.20;0.20;;;19.50;69.00;;;;;;5023744;28;20372;-78
2022/05/30 10:49:37;;;;;;;0.30;0.30;;;19.60;67.10;;;;;;5021516;28;20027;-78
2022/05/30 10:52:34;;;;;;;0.20;0.20;;;19.20;69.10;;;;;;5005351;28;20033;-77
2022/05/30 10:55:28;;;;;;;0.10;0.10;;;19.00;70.90;;;;;;5018728;28;20488;-77
2022/05/30 10:58:03;;;;;;;0.20;0.20;;;18.90;70.30;;;;;;5010998;28;20433;-78
2022/05/30 11:00:34;;;;;;;0.28;0.25;;;18.50;70.60;;;;;;5022477;28;20080;-77
2022/05/30 11:03:19;;;;;;;0.20;0.20;;;18.80;70.50;;;;;;5022275;28;20371;-77
2022/05/30 11:06:03;;;;;;;0.20;0.20;;;19.60;66.50;;;;;;5021410;28;20029;-77
2022/05/30 11:08:33;;;;;;;0.17;0.17;;;19.00;67.50;;;;;;5020475;28;20160;-77
2022/05/30 11:11:19;;;;;;;0.10;0.10;;;18.40;69.20;;;;;;5020868;28;20017;-77
2022/05/30 11:13:50;;;;;;;0.10;0.10;;;18.90;67.20;;;;;;5021681;28;20033;-77
2022/05/30 11:16:34;;;;;;;7.97;0.55;;;19.40;65.90;;;;;;5021130;28;20115;-77
2022/05/30 11:19:12;;;;;;;0.17;0.17;;;19.70;65.40;;;;;;5019999;28;20088;-77
2022/05/30 11:21:55;;;;;;;0.13;0.13;;;19.90;63.70;;;;;;5004429;28;20036;-77
2022/05/30 11:24:21;;;;;;;0.20;0.20;;;20.00;62.70;;;;;;5021245;28;20061;-77
2022/05/30 11:27:06;;;;;;;0.32;0.32;;;20.20;64.30;;;;;;5004509;28;20590;-77
2022/05/30 11:29:56;;;;;;;0.00;0.00;;;20.00;62.70;;;;;;5021353;28;20080;-78
2022/05/30 11:32:25;;;;;;;3.67;0.63;;;20.00;62.30;;;;;;5019879;28;20083;-77
2022/05/30 11:35:21;;;;;;;0.57;0.57;;;19.90;62.30;;;;;;5021497;28;20485;-77
2022/05/30 11:38:24;;;;;;;1.67;1.08;;;19.10;63.30;;;;;;5025583;28;20045;-77
2022/05/30 11:41:27;;;;;;;0.10;0.10;;;19.30;65.00;;;;;;5025580;28;20757;-77
2022/05/30 11:44:05;;;;;;;0.30;0.30;;;19.10;65.70;;;;;;5008390;28;20033;-78
2022/05/30 11:46:47;;;;;;;0.32;0.32;;;19.20;63.80;;;;;;5025298;28;20400;-77
2022/05/30 11:49:42;;;;;;;0.65;0.50;;;19.20;64.20;;;;;;5027445;28;20112;-77
2022/05/30 11:52:16;;;;;;;1.65;1.08;;;19.30;63.40;;;;;;5027377;28;20041;-77
2022/05/30 11:54:54;;;;;;;0.10;0.10;;;19.40;62.90;;;;;;5027245;28;20471;-77
2022/05/30 11:57:33;;;;;;;0.00;0.00;;;19.00;62.40;;;;;;5026733;28;20512;-77
2022/05/30 12:00:11;;;;;;;0.10;0.10;;;19.60;65.60;;;;;;5026596;28;20491;-78
2022/05/30 12:03:22;;;;;;;0.10;0.10;;;20.00;61.60;;;;;;5010106;28;20116;-77
2022/05/30 12:06:10;;;;;;;0.40;0.40;;;20.10;59.60;;;;;;5026665;28;20048;-77
2022/05/30 12:08:39;;;;;;;0.10;0.10;;;19.20;63.10;;;;;;5011087;28;20025;-77
2022/05/30 12:11:18;;;;;;;0.35;0.35;;;19.10;63.90;;;;;;5008934;28;20036;-77
2022/05/30 12:14:10;;;;;;;1.17;0.73;;;19.10;61.40;;;;;;5025978;28;20033;-77
2022/05/30 12:16:36;;;;;;;;;;;18.70;62.60;;;;;;5026102;28;20030;-78
2022/05/30 12:24:37;;;;;;;0.43;0.43;;;18.40;62.00;;;;;;5025919;28;20049;-78
2022/05/30 12:27:11;;;;;;;0.10;0.10;;;18.30;63.40;;;;;;5025973;28;20108;-78
2022/05/30 12:29:37;;;;;;;0.10;0.10;;;18.30;63.90;;;;;;5026633;28;20087;-78
2022/05/30 12:32:21;;;;;;;0.57;0.20;;;18.30;62.60;;;;;;5025859;28;20037;-77
2022/05/30 12:35:18;;;;;;;0.82;0.82;;;18.40;62.50;;;;;;5024666;28;20034;-78
2022/05/30 12:38:02;;;;;;;0.20;0.20;;;18.40;61.40;;;;;;5026821;28;20029;-80
2022/05/30 12:40:27;;;;;;;0.10;0.10;;;18.60;62.20;;;;;;5005044;28;20041;-76
2022/05/30 12:43:14;;;;;;;0.13;0.13;;;18.90;59.50;;;;;;5024730;28;20040;-77
2022/05/30 12:45:56;;;;;;;0.10;0.10;;;18.80;60.40;;;;;;5022305;28;20022;-77
2022/05/30 12:48:37;;;;;;;0.10;0.10;;;18.70;60.80;;;;;;5023407;28;20029;-77
2022/05/30 12:51:22;;;;;;;0.20;0.20;;;18.70;61.30;;;;;;5021068;28;20059;-77
2022/05/30 12:53:54;;;;;;;0.15;0.15;;;18.50;60.90;;;;;;5023070;28;20263;-77
2022/05/30 12:56:43;;;;;;;0.10;0.10;;;18.70;62.20;;;;;;5004908;28;20033;-77
2022/05/30 12:59:11;;;;;;;0.10;0.10;;;18.50;63.20;;;;;;5021945;28;20095;-77
2022/05/30 13:01:43;;;;;;;0.20;0.20;;;18.50;64.00;;;;;;5022033;28;20033;-77
2022/05/30 13:04:15;;;;;;;;;;;18.30;62.80;;;;;;5023860;28;20093;-77
2022/05/30 13:06:56;;;;;;;0.10;0.10;;;17.90;64.20;;;;;;5022811;28;19972;-77
2022/05/30 13:09:30;;;;;;;0.10;0.10;;;17.90;64.30;;;;;;5005472;28;20073;-77
2022/05/30 13:12:11;;;;;;;0.10;0.10;;;18.00;64.40;;;;;;5022986;28;20041;-77
2022/05/30 13:14:36;;;;;;;0.10;0.10;;;18.20;63.70;;;;;;5022112;28;20021;-77
2022/05/30 13:17:26;;;;;;;0.10;0.10;;;18.30;64.80;;;;;;5021507;28;20033;-77
2022/05/30 13:19:55;;;;;;;0.10;0.10;;;18.40;64.50;;;;;;5005403;28;20030;-77
2022/05/30 13:22:29;;;;;;;0.10;0.10;;;18.20;65.50;;;;;;5004784;28;20034;-77
2022/05/30 13:24:55;;;;;;;0.10;0.10;;;18.10;63.90;;;;;;5022220;28;20033;-77
2022/05/30 13:27:21;;;;;;;0.05;0.05;;;18.00;64.40;;;;;;5023073;28;20026;-77
2022/05/30 13:29:47;;;;;;;0.13;0.13;;;18.00;64.20;;;;;;5024397;28;20032;-77
2022/05/30 13:32:18;;;;;;;0.10;0.10;;;18.00;64.40;;;;;;5022138;28;20029;-77
2022/05/30 13:34:48;;;;;;;0.10;0.10;;;18.00;65.40;;;;;;5004979;28;20030;-77
2022/05/30 13:37:27;;;;;;;0.10;0.10;;;18.00;65.60;;;;;;5020314;28;20032;-77